sensor_id;sensor_type;location;lat;lon;timestamp;P1;durP1;ratioP1;P2;durP2;ratioP2
76107;SDS011;64834;52.516;10.528;2023-03-23T00:00:51;2.33;;;0.77;;
76107;SDS011;64834;52.516;10.528;2023-03-23T00:03:19;1.60;;;0.70;;
76107;SDS011;64834;52.516;10.528;2023-03-23T00:05:46;1.80;;;0.70;;
76107;SDS011;64834;52.516;10.528;2023-03-23T00:08:16;1.67;;;0.50;;
76107;SDS011;64834;52.516;10.528;2023-03-23T00:10:48;3.35;;;0.80;;
76107;SDS011;64834;52.516;10.528;2023-03-23T00:13:23;3.67;;;0.90;;
76107;SDS011;64834;52.516;10.528;2023-03-23T00:15:50;2.40;;;0.68;;
76107;SDS011;64834;52.516;10.528;2023-03-23T00:18:17;2.80;;;0.73;;
76107;SDS011;64834;52.516;10.528;2023-03-23T00:20:46;4.30;;;1.58;;
76107;SDS011;64834;52.516;10.528;2023-03-23T00:25:44;1.65;;;0.80;;
76107;SDS011;64834;52.516;10.528;2023-03-23T00:28:10;2.70;;;0.93;;
76107;SDS011;64834;52.516;10.528;2023-03-23T00:30:37;3.00;;;0.90;;
76107;SDS011;64834;52.516;10.528;2023-03-23T00:33:03;2.53;;;0.90;;
76107;SDS011;64834;52.516;10.528;2023-03-23T00:35:29;3.88;;;0.75;;
76107;SDS011;64834;52.516;10.528;2023-03-23T00:37:55;3.08;;;1.20;;
76107;SDS011;64834;52.516;10.528;2023-03-23T00:40:21;3.97;;;0.93;;
76107;SDS011;64834;52.516;10.528;2023-03-23T00:42:47;1.85;;;0.60;;
76107;SDS011;64834;52.516;10.528;2023-03-23T00:45:13;1.83;;;0.88;;
76107;SDS011;64834;52.516;10.528;2023-03-23T00:47:40;5.20;;;1.17;;
76107;SDS011;64834;52.516;10.528;2023-03-23T00:50:11;2.30;;;0.73;;
76107;SDS011;64834;52.516;10.528;2023-03-23T00:52:38;3.20;;;1.10;;
76107;SDS011;64834;52.516;10.528;2023-03-23T00:55:04;2.70;;;1.10;;
76107;SDS011;64834;52.516;10.528;2023-03-23T00:57:30;3.70;;;1.00;;
76107;SDS011;64834;52.516;10.528;2023-03-23T00:59:55;3.05;;;0.90;;
76107;SDS011;64834;52.516;10.528;2023-03-23T01:02:20;2.58;;;0.90;;
76107;SDS011;64834;52.516;10.528;2023-03-23T01:04:49;2.40;;;0.93;;
76107;SDS011;64834;52.516;10.528;2023-03-23T01:07:17;2.50;;;1.00;;
76107;SDS011;64834;52.516;10.528;2023-03-23T01:09:43;4.82;;;1.30;;
76107;SDS011;64834;52.516;10.528;2023-03-23T01:12:09;3.28;;;1.20;;
76107;SDS011;64834;52.516;10.528;2023-03-23T01:14:35;2.30;;;0.75;;
76107;SDS011;64834;52.516;10.528;2023-03-23T01:17:00;3.88;;;1.30;;
76107;SDS011;64834;52.516;10.528;2023-03-23T01:19:25;3.45;;;1.30;;
76107;SDS011;64834;52.516;10.528;2023-03-23T01:21:51;1.55;;;1.00;;
76107;SDS011;64834;52.516;10.528;2023-03-23T01:24:16;3.35;;;1.05;;
76107;SDS011;64834;52.516;10.528;2023-03-23T01:26:41;1.67;;;0.85;;
76107;SDS011;64834;52.516;10.528;2023-03-23T01:29:07;3.35;;;1.17;;
76107;SDS011;64834;52.516;10.528;2023-03-23T01:31:32;3.45;;;0.93;;
76107;SDS011;64834;52.516;10.528;2023-03-23T01:33:58;3.97;;;1.20;;
76107;SDS011;64834;52.516;10.528;2023-03-23T01:36:27;4.55;;;1.38;;
76107;SDS011;64834;52.516;10.528;2023-03-23T01:38:57;2.40;;;1.05;;
76107;SDS011;64834;52.516;10.528;2023-03-23T01:41:23;2.60;;;1.20;;
76107;SDS011;64834;52.516;10.528;2023-03-23T01:44:00;2.92;;;1.40;;
76107;SDS011;64834;52.516;10.528;2023-03-23T01:46:51;4.22;;;1.38;;
76107;SDS011;64834;52.516;10.528;2023-03-23T01:49:19;2.75;;;1.40;;
76107;SDS011;64834;52.516;10.528;2023-03-23T01:51:49;3.35;;;1.40;;
76107;SDS011;64834;52.516;10.528;2023-03-23T01:54:20;2.85;;;1.42;;
76107;SDS011;64834;52.516;10.528;2023-03-23T01:56:48;3.85;;;1.40;;
76107;SDS011;64834;52.516;10.528;2023-03-23T01:59:19;2.88;;;1.60;;
76107;SDS011;64834;52.516;10.528;2023-03-23T02:01:47;5.15;;;1.60;;
76107;SDS011;64834;52.516;10.528;2023-03-23T02:04:13;3.13;;;1.33;;
76107;SDS011;64834;52.516;10.528;2023-03-23T02:06:41;3.35;;;1.40;;
76107;SDS011;64834;52.516;10.528;2023-03-23T02:09:07;3.85;;;1.70;;
76107;SDS011;64834;52.516;10.528;2023-03-23T02:11:33;4.00;;;1.50;;
76107;SDS011;64834;52.516;10.528;2023-03-23T02:13:58;2.80;;;1.42;;
76107;SDS011;64834;52.516;10.528;2023-03-23T02:16:33;3.90;;;1.50;;
76107;SDS011;64834;52.516;10.528;2023-03-23T02:19:21;2.67;;;1.35;;
76107;SDS011;64834;52.516;10.528;2023-03-23T02:22:18;4.70;;;1.60;;
76107;SDS011;64834;52.516;10.528;2023-03-23T02:25:25;3.78;;;1.58;;
76107;SDS011;64834;52.516;10.528;2023-03-23T02:28:19;3.63;;;1.70;;
76107;SDS011;64834;52.516;10.528;2023-03-23T02:31:19;4.18;;;1.77;;
76107;SDS011;64834;52.516;10.528;2023-03-23T02:39:26;4.90;;;1.58;;
76107;SDS011;64834;52.516;10.528;2023-03-23T02:42:02;3.55;;;1.40;;
76107;SDS011;64834;52.516;10.528;2023-03-23T02:44:31;3.42;;;1.33;;
76107;SDS011;64834;52.516;10.528;2023-03-23T02:46:59;3.60;;;1.83;;
76107;SDS011;64834;52.516;10.528;2023-03-23T02:49:28;2.85;;;1.80;;
76107;SDS011;64834;52.516;10.528;2023-03-23T02:51:56;5.68;;;1.52;;
76107;SDS011;64834;52.516;10.528;2023-03-23T02:54:26;4.05;;;1.77;;
76107;SDS011;64834;52.516;10.528;2023-03-23T02:56:53;4.63;;;1.60;;
76107;SDS011;64834;52.516;10.528;2023-03-23T02:59:19;4.85;;;1.48;;
76107;SDS011;64834;52.516;10.528;2023-03-23T03:01:47;3.60;;;1.42;;
76107;SDS011;64834;52.516;10.528;2023-03-23T03:04:17;2.85;;;1.40;;
76107;SDS011;64834;52.516;10.528;2023-03-23T03:09:52;3.28;;;1.25;;
76107;SDS011;64834;52.516;10.528;2023-03-23T03:15:27;4.43;;;1.45;;
76107;SDS011;64834;52.516;10.528;2023-03-23T03:18:00;3.95;;;1.40;;
76107;SDS011;64834;52.516;10.528;2023-03-23T03:20:26;4.32;;;1.55;;
76107;SDS011;64834;52.516;10.528;2023-03-23T03:22:55;3.30;;;1.38;;
76107;SDS011;64834;52.516;10.528;2023-03-23T03:25:22;3.25;;;1.30;;
76107;SDS011;64834;52.516;10.528;2023-03-23T03:27:50;5.07;;;1.75;;
76107;SDS011;64834;52.516;10.528;2023-03-23T03:30:17;5.13;;;1.83;;
76107;SDS011;64834;52.516;10.528;2023-03-23T03:32:47;4.70;;;1.30;;
76107;SDS011;64834;52.516;10.528;2023-03-23T03:35:18;2.15;;;1.30;;
76107;SDS011;64834;52.516;10.528;2023-03-23T03:37:45;4.70;;;1.23;;
76107;SDS011;64834;52.516;10.528;2023-03-23T03:40:15;3.25;;;1.23;;
76107;SDS011;64834;52.516;10.528;2023-03-23T03:42:43;3.83;;;1.35;;
76107;SDS011;64834;52.516;10.528;2023-03-23T03:45:14;1.95;;;1.05;;
76107;SDS011;64834;52.516;10.528;2023-03-23T03:47:41;3.60;;;1.27;;
76107;SDS011;64834;52.516;10.528;2023-03-23T03:50:07;2.80;;;1.25;;
76107;SDS011;64834;52.516;10.528;2023-03-23T03:52:33;3.47;;;1.30;;
76107;SDS011;64834;52.516;10.528;2023-03-23T03:54:59;2.97;;;1.33;;
76107;SDS011;64834;52.516;10.528;2023-03-23T03:57:24;4.18;;;1.27;;
76107;SDS011;64834;52.516;10.528;2023-03-23T03:59:49;4.22;;;1.10;;
76107;SDS011;64834;52.516;10.528;2023-03-23T04:02:15;4.63;;;1.63;;
76107;SDS011;64834;52.516;10.528;2023-03-23T04:04:44;2.90;;;1.50;;
76107;SDS011;64834;52.516;10.528;2023-03-23T04:07:14;2.40;;;1.15;;
76107;SDS011;64834;52.516;10.528;2023-03-23T04:09:41;4.05;;;1.67;;
76107;SDS011;64834;52.516;10.528;2023-03-23T04:12:11;4.10;;;1.42;;
76107;SDS011;64834;52.516;10.528;2023-03-23T04:14:37;3.33;;;1.30;;
76107;SDS011;64834;52.516;10.528;2023-03-23T04:17:03;3.15;;;1.55;;
76107;SDS011;64834;52.516;10.528;2023-03-23T04:19:28;3.83;;;2.20;;
76107;SDS011;64834;52.516;10.528;2023-03-23T04:21:54;3.83;;;1.42;;
76107;SDS011;64834;52.516;10.528;2023-03-23T04:24:20;4.03;;;1.40;;
76107;SDS011;64834;52.516;10.528;2023-03-23T04:26:46;3.13;;;1.40;;
76107;SDS011;64834;52.516;10.528;2023-03-23T04:29:12;4.63;;;1.58;;
76107;SDS011;64834;52.516;10.528;2023-03-23T04:31:38;3.00;;;1.52;;
76107;SDS011;64834;52.516;10.528;2023-03-23T04:34:04;4.65;;;1.60;;
76107;SDS011;64834;52.516;10.528;2023-03-23T04:36:29;2.72;;;1.80;;
76107;SDS011;64834;52.516;10.528;2023-03-23T04:38:55;3.33;;;2.00;;
76107;SDS011;64834;52.516;10.528;2023-03-23T04:41:21;6.07;;;2.08;;
76107;SDS011;64834;52.516;10.528;2023-03-23T04:43:47;3.15;;;1.42;;
76107;SDS011;64834;52.516;10.528;2023-03-23T04:46:17;3.40;;;1.55;;
76107;SDS011;64834;52.516;10.528;2023-03-23T04:48:44;3.80;;;1.70;;
76107;SDS011;64834;52.516;10.528;2023-03-23T04:51:10;5.38;;;2.00;;
76107;SDS011;64834;52.516;10.528;2023-03-23T04:53:37;3.88;;;1.80;;
76107;SDS011;64834;52.516;10.528;2023-03-23T04:56:02;3.83;;;1.48;;
76107;SDS011;64834;52.516;10.528;2023-03-23T04:58:28;3.60;;;1.70;;
76107;SDS011;64834;52.516;10.528;2023-03-23T05:00:54;4.70;;;1.60;;
76107;SDS011;64834;52.516;10.528;2023-03-23T05:03:20;4.45;;;1.70;;
76107;SDS011;64834;52.516;10.528;2023-03-23T05:05:46;6.13;;;1.52;;
76107;SDS011;64834;52.516;10.528;2023-03-23T05:08:20;3.80;;;1.63;;
76107;SDS011;64834;52.516;10.528;2023-03-23T05:10:53;3.88;;;1.63;;
76107;SDS011;64834;52.516;10.528;2023-03-23T05:13:20;2.80;;;1.33;;
76107;SDS011;64834;52.516;10.528;2023-03-23T05:15:46;3.97;;;1.52;;
76107;SDS011;64834;52.516;10.528;2023-03-23T05:18:12;4.18;;;2.00;;
76107;SDS011;64834;52.516;10.528;2023-03-23T05:20:37;2.45;;;1.13;;
76107;SDS011;64834;52.516;10.528;2023-03-23T05:23:03;2.70;;;1.40;;
76107;SDS011;64834;52.516;10.528;2023-03-23T05:25:28;4.78;;;1.35;;
76107;SDS011;64834;52.516;10.528;2023-03-23T05:27:53;2.20;;;1.13;;
76107;SDS011;64834;52.516;10.528;2023-03-23T05:30:19;4.95;;;1.42;;
76107;SDS011;64834;52.516;10.528;2023-03-23T05:32:46;2.78;;;1.20;;
76107;SDS011;64834;52.516;10.528;2023-03-23T05:35:15;3.33;;;1.23;;
76107;SDS011;64834;52.516;10.528;2023-03-23T05:37:42;2.90;;;1.45;;
76107;SDS011;64834;52.516;10.528;2023-03-23T05:40:09;2.35;;;1.00;;
76107;SDS011;64834;52.516;10.528;2023-03-23T05:42:37;2.55;;;1.38;;
76107;SDS011;64834;52.516;10.528;2023-03-23T05:45:03;2.63;;;1.25;;
76107;SDS011;64834;52.516;10.528;2023-03-23T05:47:29;2.30;;;1.30;;
76107;SDS011;64834;52.516;10.528;2023-03-23T05:49:55;2.28;;;1.25;;
76107;SDS011;64834;52.516;10.528;2023-03-23T05:52:20;3.08;;;1.15;;
76107;SDS011;64834;52.516;10.528;2023-03-23T05:54:46;3.45;;;1.10;;
76107;SDS011;64834;52.516;10.528;2023-03-23T05:57:11;2.33;;;1.33;;
76107;SDS011;64834;52.516;10.528;2023-03-23T05:59:37;3.55;;;1.10;;
76107;SDS011;64834;52.516;10.528;2023-03-23T06:02:02;1.83;;;1.00;;
76107;SDS011;64834;52.516;10.528;2023-03-23T06:04:29;1.95;;;1.02;;
76107;SDS011;64834;52.516;10.528;2023-03-23T06:06:54;3.80;;;1.00;;
76107;SDS011;64834;52.516;10.528;2023-03-23T06:09:20;1.60;;;0.90;;
76107;SDS011;64834;52.516;10.528;2023-03-23T06:11:46;2.38;;;0.90;;
76107;SDS011;64834;52.516;10.528;2023-03-23T06:14:12;3.13;;;1.08;;
76107;SDS011;64834;52.516;10.528;2023-03-23T06:16:38;3.35;;;1.00;;
76107;SDS011;64834;52.516;10.528;2023-03-23T06:19:03;2.47;;;1.30;;
76107;SDS011;64834;52.516;10.528;2023-03-23T06:21:29;2.55;;;1.73;;
76107;SDS011;64834;52.516;10.528;2023-03-23T06:23:55;3.20;;;1.23;;
76107;SDS011;64834;52.516;10.528;2023-03-23T06:26:21;3.78;;;1.80;;
76107;SDS011;64834;52.516;10.528;2023-03-23T06:28:50;2.08;;;0.80;;
76107;SDS011;64834;52.516;10.528;2023-03-23T06:31:15;2.70;;;1.30;;
76107;SDS011;64834;52.516;10.528;2023-03-23T06:33:42;2.47;;;1.00;;
76107;SDS011;64834;52.516;10.528;2023-03-23T06:36:07;2.47;;;0.93;;
76107;SDS011;64834;52.516;10.528;2023-03-23T06:38:33;2.88;;;0.93;;
76107;SDS011;64834;52.516;10.528;2023-03-23T06:40:58;2.10;;;0.80;;
76107;SDS011;64834;52.516;10.528;2023-03-23T06:43:23;3.75;;;0.80;;
76107;SDS011;64834;52.516;10.528;2023-03-23T06:45:49;3.72;;;0.90;;
76107;SDS011;64834;52.516;10.528;2023-03-23T06:48:16;1.60;;;0.90;;
76107;SDS011;64834;52.516;10.528;2023-03-23T06:50:42;3.20;;;1.05;;
76107;SDS011;64834;52.516;10.528;2023-03-23T06:53:11;3.17;;;1.05;;
76107;SDS011;64834;52.516;10.528;2023-03-23T06:55:37;1.52;;;0.70;;
76107;SDS011;64834;52.516;10.528;2023-03-23T06:58:04;2.50;;;0.90;;
76107;SDS011;64834;52.516;10.528;2023-03-23T07:00:31;3.25;;;0.82;;
76107;SDS011;64834;52.516;10.528;2023-03-23T07:02:56;1.90;;;0.80;;
76107;SDS011;64834;52.516;10.528;2023-03-23T07:05:22;2.38;;;0.70;;
76107;SDS011;64834;52.516;10.528;2023-03-23T07:07:47;1.65;;;0.73;;
76107;SDS011;64834;52.516;10.528;2023-03-23T07:10:13;2.33;;;1.13;;
76107;SDS011;64834;52.516;10.528;2023-03-23T07:12:38;1.77;;;0.70;;
76107;SDS011;64834;52.516;10.528;2023-03-23T07:15:05;3.00;;;1.17;;
76107;SDS011;64834;52.516;10.528;2023-03-23T07:17:30;1.92;;;0.68;;
76107;SDS011;64834;52.516;10.528;2023-03-23T07:19:56;1.85;;;0.80;;
76107;SDS011;64834;52.516;10.528;2023-03-23T07:22:22;2.55;;;1.05;;
76107;SDS011;64834;52.516;10.528;2023-03-23T07:24:47;2.20;;;0.85;;
76107;SDS011;64834;52.516;10.528;2023-03-23T07:27:13;1.77;;;0.95;;
76107;SDS011;64834;52.516;10.528;2023-03-23T07:29:38;2.42;;;0.80;;
76107;SDS011;64834;52.516;10.528;2023-03-23T07:32:05;3.35;;;0.93;;
76107;SDS011;64834;52.516;10.528;2023-03-23T07:34:31;3.15;;;1.88;;
76107;SDS011;64834;52.516;10.528;2023-03-23T07:36:57;1.92;;;0.80;;
76107;SDS011;64834;52.516;10.528;2023-03-23T07:39:23;1.80;;;0.82;;
76107;SDS011;64834;52.516;10.528;2023-03-23T07:41:50;1.88;;;0.82;;
76107;SDS011;64834;52.516;10.528;2023-03-23T07:44:16;1.35;;;0.60;;
76107;SDS011;64834;52.516;10.528;2023-03-23T07:46:41;2.00;;;0.80;;
76107;SDS011;64834;52.516;10.528;2023-03-23T07:49:07;1.70;;;0.73;;
76107;SDS011;64834;52.516;10.528;2023-03-23T07:51:33;1.77;;;0.75;;
76107;SDS011;64834;52.516;10.528;2023-03-23T07:53:59;2.15;;;0.98;;
76107;SDS011;64834;52.516;10.528;2023-03-23T07:56:25;1.92;;;0.68;;
76107;SDS011;64834;52.516;10.528;2023-03-23T07:58:51;2.60;;;1.13;;
76107;SDS011;64834;52.516;10.528;2023-03-23T08:01:16;2.00;;;0.80;;
76107;SDS011;64834;52.516;10.528;2023-03-23T08:03:42;1.55;;;0.68;;
76107;SDS011;64834;52.516;10.528;2023-03-23T08:06:07;2.03;;;0.70;;
76107;SDS011;64834;52.516;10.528;2023-03-23T08:08:33;1.98;;;0.57;;
76107;SDS011;64834;52.516;10.528;2023-03-23T08:10:59;2.22;;;0.82;;
76107;SDS011;64834;52.516;10.528;2023-03-23T08:13:25;1.98;;;0.75;;
76107;SDS011;64834;52.516;10.528;2023-03-23T08:15:50;3.17;;;0.90;;
76107;SDS011;64834;52.516;10.528;2023-03-23T08:18:16;2.70;;;0.85;;
76107;SDS011;64834;52.516;10.528;2023-03-23T08:20:42;2.08;;;0.73;;
76107;SDS011;64834;52.516;10.528;2023-03-23T08:23:07;1.95;;;0.82;;
76107;SDS011;64834;52.516;10.528;2023-03-23T08:25:33;2.22;;;0.80;;
76107;SDS011;64834;52.516;10.528;2023-03-23T08:27:59;1.85;;;0.80;;
76107;SDS011;64834;52.516;10.528;2023-03-23T08:30:27;2.28;;;0.70;;
76107;SDS011;64834;52.516;10.528;2023-03-23T08:32:55;2.10;;;0.60;;
76107;SDS011;64834;52.516;10.528;2023-03-23T08:35:25;2.05;;;1.00;;
76107;SDS011;64834;52.516;10.528;2023-03-23T08:37:50;3.60;;;0.75;;
76107;SDS011;64834;52.516;10.528;2023-03-23T08:40:17;3.15;;;0.70;;
76107;SDS011;64834;52.516;10.528;2023-03-23T08:42:44;1.50;;;0.90;;
76107;SDS011;64834;52.516;10.528;2023-03-23T08:45:12;1.23;;;0.45;;
76107;SDS011;64834;52.516;10.528;2023-03-23T08:47:39;2.35;;;0.85;;
76107;SDS011;64834;52.516;10.528;2023-03-23T08:50:06;1.95;;;0.70;;
76107;SDS011;64834;52.516;10.528;2023-03-23T08:52:32;2.05;;;0.70;;
76107;SDS011;64834;52.516;10.528;2023-03-23T08:54:58;2.42;;;0.80;;
76107;SDS011;64834;52.516;10.528;2023-03-23T08:57:26;2.28;;;0.80;;
76107;SDS011;64834;52.516;10.528;2023-03-23T08:59:52;2.45;;;0.80;;
76107;SDS011;64834;52.516;10.528;2023-03-23T09:02:19;2.58;;;0.93;;
76107;SDS011;64834;52.516;10.528;2023-03-23T09:04:45;2.22;;;0.90;;
76107;SDS011;64834;52.516;10.528;2023-03-23T09:07:11;1.80;;;0.70;;
76107;SDS011;64834;52.516;10.528;2023-03-23T09:09:39;3.10;;;0.90;;
76107;SDS011;64834;52.516;10.528;2023-03-23T09:12:05;3.00;;;1.10;;
76107;SDS011;64834;52.516;10.528;2023-03-23T09:14:32;2.55;;;0.88;;
76107;SDS011;64834;52.516;10.528;2023-03-23T09:16:57;4.20;;;0.93;;
76107;SDS011;64834;52.516;10.528;2023-03-23T09:19:23;4.30;;;1.02;;
76107;SDS011;64834;52.516;10.528;2023-03-23T09:21:48;5.28;;;1.08;;
76107;SDS011;64834;52.516;10.528;2023-03-23T09:24:14;3.83;;;1.00;;
76107;SDS011;64834;52.516;10.528;2023-03-23T09:26:39;2.40;;;1.00;;
76107;SDS011;64834;52.516;10.528;2023-03-23T09:29:05;2.97;;;1.02;;
76107;SDS011;64834;52.516;10.528;2023-03-23T09:31:30;4.28;;;1.00;;
76107;SDS011;64834;52.516;10.528;2023-03-23T09:33:56;2.63;;;0.70;;
76107;SDS011;64834;52.516;10.528;2023-03-23T09:36:23;3.85;;;0.98;;
76107;SDS011;64834;52.516;10.528;2023-03-23T09:38:50;1.40;;;0.82;;
76107;SDS011;64834;52.516;10.528;2023-03-23T09:41:29;1.73;;;0.80;;
76107;SDS011;64834;52.516;10.528;2023-03-23T09:44:12;4.95;;;1.00;;
76107;SDS011;64834;52.516;10.528;2023-03-23T09:52:09;2.72;;;0.93;;
76107;SDS011;64834;52.516;10.528;2023-03-23T09:54:36;4.43;;;1.10;;
76107;SDS011;64834;52.516;10.528;2023-03-23T09:57:05;5.18;;;1.20;;
76107;SDS011;64834;52.516;10.528;2023-03-23T10:02:28;2.70;;;0.90;;
76107;SDS011;64834;52.516;10.528;2023-03-23T10:05:04;3.47;;;1.20;;
76107;SDS011;64834;52.516;10.528;2023-03-23T10:07:50;3.83;;;1.05;;
76107;SDS011;64834;52.516;10.528;2023-03-23T10:10:15;2.67;;;1.20;;
76107;SDS011;64834;52.516;10.528;2023-03-23T10:12:44;3.17;;;1.10;;
76107;SDS011;64834;52.516;10.528;2023-03-23T10:15:23;3.05;;;1.02;;
76107;SDS011;64834;52.516;10.528;2023-03-23T10:20:37;2.53;;;1.08;;
76107;SDS011;64834;52.516;10.528;2023-03-23T10:25:58;3.53;;;0.70;;
76107;SDS011;64834;52.516;10.528;2023-03-23T10:28:35;5.30;;;1.15;;
76107;SDS011;64834;52.516;10.528;2023-03-23T10:31:10;3.50;;;1.10;;
76107;SDS011;64834;52.516;10.528;2023-03-23T10:33:40;5.45;;;1.25;;
76107;SDS011;64834;52.516;10.528;2023-03-23T10:36:13;3.03;;;0.85;;
76107;SDS011;64834;52.516;10.528;2023-03-23T10:38:53;5.07;;;0.95;;
76107;SDS011;64834;52.516;10.528;2023-03-23T10:41:25;4.65;;;0.93;;
76107;SDS011;64834;52.516;10.528;2023-03-23T10:43:50;4.38;;;1.52;;
76107;SDS011;64834;52.516;10.528;2023-03-23T10:49:06;4.50;;;1.20;;
76107;SDS011;64834;52.516;10.528;2023-03-23T10:51:37;4.38;;;1.17;;
76107;SDS011;64834;52.516;10.528;2023-03-23T10:54:06;4.82;;;1.48;;
76107;SDS011;64834;52.516;10.528;2023-03-23T10:56:42;4.97;;;1.10;;
76107;SDS011;64834;52.516;10.528;2023-03-23T10:59:13;7.80;;;1.58;;
76107;SDS011;64834;52.516;10.528;2023-03-23T11:01:45;4.18;;;1.30;;
76107;SDS011;64834;52.516;10.528;2023-03-23T11:04:15;4.13;;;1.33;;
76107;SDS011;64834;52.516;10.528;2023-03-23T11:06:45;5.30;;;1.20;;
76107;SDS011;64834;52.516;10.528;2023-03-23T11:09:17;4.22;;;1.35;;
76107;SDS011;64834;52.516;10.528;2023-03-23T11:11:51;3.50;;;1.40;;
76107;SDS011;64834;52.516;10.528;2023-03-23T11:14:34;5.38;;;1.30;;
76107;SDS011;64834;52.516;10.528;2023-03-23T11:17:04;5.30;;;1.27;;
76107;SDS011;64834;52.516;10.528;2023-03-23T11:19:34;2.70;;;1.10;;
76107;SDS011;64834;52.516;10.528;2023-03-23T11:24:31;3.90;;;1.40;;
76107;SDS011;64834;52.516;10.528;2023-03-23T11:26:58;2.75;;;1.17;;
76107;SDS011;64834;52.516;10.528;2023-03-23T11:29:26;4.43;;;1.05;;
76107;SDS011;64834;52.516;10.528;2023-03-23T11:32:01;4.78;;;0.95;;
76107;SDS011;64834;52.516;10.528;2023-03-23T11:34:32;3.40;;;1.20;;
76107;SDS011;64834;52.516;10.528;2023-03-23T11:37:03;4.90;;;1.30;;
76107;SDS011;64834;52.516;10.528;2023-03-23T11:39:35;3.35;;;1.02;;
76107;SDS011;64834;52.516;10.528;2023-03-23T11:42:19;4.20;;;0.85;;
76107;SDS011;64834;52.516;10.528;2023-03-23T11:44:46;3.35;;;1.30;;
76107;SDS011;64834;52.516;10.528;2023-03-23T11:50:24;3.65;;;1.05;;
76107;SDS011;64834;52.516;10.528;2023-03-23T11:55:49;7.53;;;1.15;;
76107;SDS011;64834;52.516;10.528;2023-03-23T11:58:20;3.17;;;0.68;;
76107;SDS011;64834;52.516;10.528;2023-03-23T12:00:51;2.60;;;0.93;;
76107;SDS011;64834;52.516;10.528;2023-03-23T12:03:21;5.82;;;1.13;;
76107;SDS011;64834;52.516;10.528;2023-03-23T12:06:03;2.50;;;0.98;;
76107;SDS011;64834;52.516;10.528;2023-03-23T12:11:09;2.58;;;0.73;;
76107;SDS011;64834;52.516;10.528;2023-03-23T12:14:01;3.58;;;0.82;;
76107;SDS011;64834;52.516;10.528;2023-03-23T12:16:52;3.85;;;0.80;;
76107;SDS011;64834;52.516;10.528;2023-03-23T12:20:01;4.72;;;1.15;;
76107;SDS011;64834;52.516;10.528;2023-03-23T12:23:03;6.13;;;0.93;;
76107;SDS011;64834;52.516;10.528;2023-03-23T12:25:43;5.05;;;1.08;;
76107;SDS011;64834;52.516;10.528;2023-03-23T12:28:32;3.55;;;0.68;;
76107;SDS011;64834;52.516;10.528;2023-03-23T12:34:07;3.10;;;0.70;;
76107;SDS011;64834;52.516;10.528;2023-03-23T12:42:52;4.90;;;1.15;;
76107;SDS011;64834;52.516;10.528;2023-03-23T12:48:06;5.43;;;1.30;;
76107;SDS011;64834;52.516;10.528;2023-03-23T12:50:40;5.55;;;0.80;;
76107;SDS011;64834;52.516;10.528;2023-03-23T12:53:19;5.63;;;0.90;;
76107;SDS011;64834;52.516;10.528;2023-03-23T12:56:02;3.47;;;1.30;;
76107;SDS011;64834;52.516;10.528;2023-03-23T12:58:37;5.90;;;1.02;;
76107;SDS011;64834;52.516;10.528;2023-03-23T13:01:11;4.30;;;1.20;;
76107;SDS011;64834;52.516;10.528;2023-03-23T13:03:59;3.28;;;1.50;;
76107;SDS011;64834;52.516;10.528;2023-03-23T13:06:37;3.08;;;1.17;;
76107;SDS011;64834;52.516;10.528;2023-03-23T13:11:35;4.32;;;1.17;;
76107;SDS011;64834;52.516;10.528;2023-03-23T13:17:13;2.40;;;1.30;;
76107;SDS011;64834;52.516;10.528;2023-03-23T13:22:31;2.97;;;1.23;;
76107;SDS011;64834;52.516;10.528;2023-03-23T13:25:06;3.15;;;1.10;;
76107;SDS011;64834;52.516;10.528;2023-03-23T13:27:38;2.55;;;0.82;;
76107;SDS011;64834;52.516;10.528;2023-03-23T13:30:04;3.40;;;1.10;;
76107;SDS011;64834;52.516;10.528;2023-03-23T13:32:41;2.20;;;0.60;;
76107;SDS011;64834;52.516;10.528;2023-03-23T13:35:11;2.95;;;0.77;;
76107;SDS011;64834;52.516;10.528;2023-03-23T13:37:50;3.65;;;0.88;;
76107;SDS011;64834;52.516;10.528;2023-03-23T13:40:24;2.45;;;0.82;;
76107;SDS011;64834;52.516;10.528;2023-03-23T13:42:57;2.60;;;1.10;;
76107;SDS011;64834;52.516;10.528;2023-03-23T13:45:35;2.65;;;0.70;;
76107;SDS011;64834;52.516;10.528;2023-03-23T13:51:21;2.72;;;1.30;;
76107;SDS011;64834;52.516;10.528;2023-03-23T13:53:30;0.93;;;0.50;;
76107;SDS011;64834;52.516;10.528;2023-03-23T13:56:15;3.00;;;1.05;;
76107;SDS011;64834;52.516;10.528;2023-03-23T14:01:13;3.10;;;0.90;;
76107;SDS011;64834;52.516;10.528;2023-03-23T14:03:44;2.45;;;1.00;;
76107;SDS011;64834;52.516;10.528;2023-03-23T14:06:16;1.75;;;0.73;;
76107;SDS011;64834;52.516;10.528;2023-03-23T14:08:45;1.65;;;0.85;;
76107;SDS011;64834;52.516;10.528;2023-03-23T14:11:24;2.38;;;0.50;;
76107;SDS011;64834;52.516;10.528;2023-03-23T14:14:05;4.38;;;0.70;;
76107;SDS011;64834;52.516;10.528;2023-03-23T14:16:42;1.33;;;0.40;;
76107;SDS011;64834;52.516;10.528;2023-03-23T14:19:44;1.70;;;0.55;;
76107;SDS011;64834;52.516;10.528;2023-03-23T14:22:03;1.02;;;0.38;;
76107;SDS011;64834;52.516;10.528;2023-03-23T14:24:29;1.48;;;0.45;;
76107;SDS011;64834;52.516;10.528;2023-03-23T14:27:29;0.60;;;0.20;;
76107;SDS011;64834;52.516;10.528;2023-03-23T14:30:05;1.90;;;0.38;;
76107;SDS011;64834;52.516;10.528;2023-03-23T14:32:32;1.17;;;0.30;;
76107;SDS011;64834;52.516;10.528;2023-03-23T14:34:58;1.63;;;0.25;;
76107;SDS011;64834;52.516;10.528;2023-03-23T14:37:25;3.10;;;0.30;;
76107;SDS011;64834;52.516;10.528;2023-03-23T14:39:54;0.88;;;0.30;;
76107;SDS011;64834;52.516;10.528;2023-03-23T14:42:31;2.92;;;0.43;;
76107;SDS011;64834;52.516;10.528;2023-03-23T14:44:59;2.53;;;0.40;;
76107;SDS011;64834;52.516;10.528;2023-03-23T14:47:30;0.50;;;0.20;;
76107;SDS011;64834;52.516;10.528;2023-03-23T14:49:59;1.65;;;0.20;;
76107;SDS011;64834;52.516;10.528;2023-03-23T14:52:27;3.67;;;0.30;;
76107;SDS011;64834;52.516;10.528;2023-03-23T14:57:25;1.40;;;0.40;;
76107;SDS011;64834;52.516;10.528;2023-03-23T14:59:53;2.10;;;0.30;;
76107;SDS011;64834;52.516;10.528;2023-03-23T15:04:50;0.85;;;0.43;;
76107;SDS011;64834;52.516;10.528;2023-03-23T15:07:20;0.93;;;0.28;;
76107;SDS011;64834;52.516;10.528;2023-03-23T15:09:49;1.70;;;0.45;;
76107;SDS011;64834;52.516;10.528;2023-03-23T15:12:25;1.85;;;0.40;;
76107;SDS011;64834;52.516;10.528;2023-03-23T15:14:54;1.70;;;0.45;;
76107;SDS011;64834;52.516;10.528;2023-03-23T15:17:22;1.67;;;0.40;;
76107;SDS011;64834;52.516;10.528;2023-03-23T15:19:50;2.03;;;0.50;;
76107;SDS011;64834;52.516;10.528;2023-03-23T15:22:27;2.80;;;0.82;;
76107;SDS011;64834;52.516;10.528;2023-03-23T15:25:10;1.92;;;0.70;;
76107;SDS011;64834;52.516;10.528;2023-03-23T15:27:51;2.15;;;1.02;;
76107;SDS011;64834;52.516;10.528;2023-03-23T15:30:45;3.17;;;1.25;;
76107;SDS011;64834;52.516;10.528;2023-03-23T15:33:12;3.20;;;0.98;;
76107;SDS011;64834;52.516;10.528;2023-03-23T15:35:40;4.57;;;1.33;;
76107;SDS011;64834;52.516;10.528;2023-03-23T15:38:17;4.38;;;0.70;;
76107;SDS011;64834;52.516;10.528;2023-03-23T15:40:48;4.20;;;1.02;;
76107;SDS011;64834;52.516;10.528;2023-03-23T15:43:16;2.88;;;0.95;;
76107;SDS011;64834;52.516;10.528;2023-03-23T15:46:46;3.05;;;0.93;;
76107;SDS011;64834;52.516;10.528;2023-03-23T15:48:46;2.00;;;0.82;;
76107;SDS011;64834;52.516;10.528;2023-03-23T15:51:13;2.38;;;0.75;;
76107;SDS011;64834;52.516;10.528;2023-03-23T15:53:40;2.13;;;0.60;;
76107;SDS011;64834;52.516;10.528;2023-03-23T15:56:07;1.90;;;0.73;;
76107;SDS011;64834;52.516;10.528;2023-03-23T15:58:34;1.17;;;0.47;;
76107;SDS011;64834;52.516;10.528;2023-03-23T16:01:02;1.75;;;0.77;;